Fort Stockton, TX

9:59 PM CDT on May 26, 2018 (GMT -0500)
Fort Stockton-Pecos County | | Change Station
Active Advisory: Heat Advisory

Elev 3009 ft 30.92 °N, 102.92 °W | Updated 6 minutes ago

Clear
Clear
91 °F
Feels Like 91 °F
N
15
Wind Variable Wind from SSE

Today
High -- | Low -- °F
--% Chance of Precip.
Yesterday
High -- | Low -- °F
Precip. -- in
Pressure 29.61 in
Visibility 10.0 miles
Clouds Clear
Dew Point 37 °F
Humidity 15%
Rainfall 0.00 in
Snow Depth Not available.
6:50 AM 8:46 PM
Waxing Gibbous, 94% visible
METAR KFST 270253Z AUTO 15013KT 10SM CLR 33/03 A2979 RMK AO2 SLP027 T03280028 53006
Pressure 29.61 in
Visibility 10.0 miles
Clouds Clear
Dew Point 37 °F
Humidity 15%
Rainfall 0.00 in
Snow Depth Not available.
6:50 AM 8:46 PM
Waxing Gibbous, 94% visible
METAR KFST 270253Z AUTO 15013KT 10SM CLR 33/03 A2979 RMK AO2 SLP027 T03280028 53006

Get Your Daily Forecast Email!

Thanks for signing up!

Be on the lookout for a verification email in your inbox.

You'll start receiving severe weather alerts in your inbox..

×

10-Day Weather Forecast

Almanac

Astronomy

May. 26, 2018 Rise Set
Actual Time
Civil Twilight
Nautical Twilight
Astronomical Twilight
Moon
Length of Visible Light
Length of Day
Tomorrow will be .
, % of the Moon is Illuminated

Today's Extremes

State Highs State Lows

Community

WunderPhotos

Category 6

Welcome to Category 6. This is the collective home for Weather Underground's featured writeups by Dr. Jeff Masters (right), Bob Henson (left), Chris Burt, and other regular contributors.

Nearby

Air Quality

  Air Quality AQ Index Pollutant
Not available.

Snow Depth

Station Depth Elevation

Earthquake Activity

City Distance Mag. Time & Date
Minimum magnitude displayed is 2.5.

Coastal Water Temperatures

Place Temperature

Stations

Nearby Weather Stations

Station Location Temp. Windchill Dew Point Humidity Wind Precip. Elev Updated Type
                   

Watches & Warnings

Heat Advisory
Issued: 2:42 PM CDT May. 26, 2018 – National Weather Service

... Heat advisory in effect until 7 PM CDT Sunday...

* temperature... highs around 115 along the Rio Grande. Highs
around 100 in the Davis Mountains. Highs around 110 along the
Pecos River.

* Impacts... if you plan to be outside, avoid prolonged exposure or
strenuous physical activity. Drink plenty of non-alcoholic or
non- caffeinated beverages. Wear lightweight, light-colored,
loose- fitting clothing, a hat to shield yourself from the sun,
and use a sunscreen to reduce possible sunburn. The elderly,
very Young, sick and persons with heart conditions are most at
risk in extreme heat.

Precautionary/preparedness actions...

Take extra precautions, if you work or spend time outside. When
possible, reschedule strenuous activities to early morning or
evening. Know the signs and symptoms of heat exhaustion and heat
stroke. Wear light weight and loose fitting clothing when
possible and drink plenty of water.